Time;durP1;ratioP1;P1;durP2;ratioP2;P2;SDS_P1;SDS_P2;PMS_P1;PMS_P2;Temp;Humidity;BMP_temperature;BMP_pressure;BME280_temperature;BME280_humidity;BME280_pressure;Samples;Min_cycle;Max_cycle;Signal;HPM_P1;HPM_P2
2021/09/19 00:02:12;;;;;;;1.50;1.00;;;16.00;98.20;;;;;;4990702;28;20476;-79
2021/09/19 00:04:39;;;;;;;1.50;1.00;;;16.00;98.20;;;;;;4988501;28;20519;-80
2021/09/19 00:07:08;;;;;;;1.50;1.00;;;16.00;98.20;;;;;;4990352;28;20485;-80
2021/09/19 00:09:37;;;;;;;1.57;1.10;;;16.00;98.20;;;;;;4991512;28;20742;-80
2021/09/19 00:12:04;;;;;;;1.57;1.10;;;16.00;98.20;;;;;;4991119;28;20485;-79
2021/09/19 00:14:34;;;;;;;1.50;1.00;;;15.90;98.20;;;;;;4991004;28;20460;-80
2021/09/19 00:17:01;;;;;;;1.50;1.00;;;15.90;98.20;;;;;;4988226;28;20496;-79
2021/09/19 00:19:28;;;;;;;1.53;1.00;;;15.90;98.20;;;;;;4988519;28;20821;-79
2021/09/19 00:21:55;;;;;;;1.50;0.90;;;15.90;98.20;;;;;;4985629;28;20461;-79
2021/09/19 00:24:23;;;;;;;1.50;0.90;;;15.90;98.20;;;;;;4989906;28;20476;-79
2021/09/19 00:26:50;;;;;;;1.50;1.00;;;15.80;98.20;;;;;;4989527;28;20480;-79
2021/09/19 00:29:17;;;;;;;1.57;1.00;;;15.80;98.20;;;;;;4986331;28;20846;-80
2021/09/19 00:31:44;;;;;;;1.60;1.00;;;15.80;98.20;;;;;;4991024;28;20456;-79
2021/09/19 00:34:11;;;;;;;1.60;1.10;;;15.80;98.20;;;;;;4986928;28;20470;-79
2021/09/19 00:36:38;;;;;;;1.57;1.00;;;15.80;98.20;;;;;;4989696;28;20489;-80
2021/09/19 00:39:05;;;;;;;1.60;1.10;;;15.80;98.20;;;;;;4989714;28;20503;-80
2021/09/19 00:41:34;;;;;;;1.50;1.00;;;15.70;98.20;;;;;;4981840;28;20976;-79
2021/09/19 00:44:04;;;;;;;1.50;1.00;;;15.70;98.20;;;;;;4985793;28;20589;-80
2021/09/19 00:46:31;;;;;;;1.57;1.00;;;15.70;98.20;;;;;;4990267;28;20704;-81
2021/09/19 00:48:58;;;;;;;1.57;1.10;;;15.70;98.20;;;;;;4990839;28;20472;-79
2021/09/19 00:51:25;;;;;;;1.50;1.00;;;15.60;98.20;;;;;;4990818;28;20469;-79
2021/09/19 00:53:52;;;;;;;1.50;1.00;;;15.60;98.20;;;;;;4990124;28;20468;-79
2021/09/19 00:56:24;;;;;;;1.53;1.00;;;15.60;98.20;;;;;;4988582;28;20465;-78
2021/09/19 00:58:53;;;;;;;1.50;1.00;;;15.60;98.20;;;;;;4989604;28;20584;-80
2021/09/19 01:01:20;;;;;;;1.50;1.00;;;15.60;98.20;;;;;;4991357;28;20515;-80
2021/09/19 01:03:48;;;;;;;1.50;1.00;;;15.60;98.20;;;;;;4989278;28;20485;-80
2021/09/19 01:06:16;;;;;;;1.57;1.00;;;15.60;98.20;;;;;;4990222;28;20869;-80
2021/09/19 01:08:43;;;;;;;1.50;1.00;;;15.60;98.20;;;;;;4984206;28;20869;-79
2021/09/19 01:11:11;;;;;;;1.50;1.00;;;15.60;98.20;;;;;;4987572;28;20490;-79
2021/09/19 01:13:40;;;;;;;1.50;1.10;;;15.60;98.20;;;;;;4989709;28;20991;-78
2021/09/19 01:16:09;;;;;;;1.53;1.00;;;15.60;98.20;;;;;;4987902;28;20461;-79
2021/09/19 01:18:37;;;;;;;1.53;1.00;;;15.60;98.20;;;;;;4990664;28;20691;-79
2021/09/19 01:21:04;;;;;;;1.53;1.00;;;15.60;98.20;;;;;;4990538;28;20838;-80
2021/09/19 01:23:33;;;;;;;1.50;1.00;;;15.60;98.20;;;;;;4991365;28;21054;-79
2021/09/19 01:26:01;;;;;;;1.50;1.00;;;15.60;98.20;;;;;;4990287;28;20469;-80
2021/09/19 01:28:28;;;;;;;1.50;1.00;;;15.60;98.20;;;;;;4990722;28;20923;-79
2021/09/19 01:30:55;;;;;;;1.50;1.00;;;15.60;98.20;;;;;;4990800;28;20976;-80
2021/09/19 01:33:22;;;;;;;1.50;1.00;;;15.50;98.20;;;;;;4991104;28;20469;-80
2021/09/19 01:35:49;;;;;;;1.57;1.10;;;15.60;98.20;;;;;;4988596;28;20963;-79
2021/09/19 01:38:16;;;;;;;1.50;1.00;;;15.50;98.20;;;;;;4987518;28;20504;-78
2021/09/19 01:40:44;;;;;;;1.50;0.90;;;15.50;98.20;;;;;;4989514;28;20476;-79
2021/09/19 01:43:12;;;;;;;1.53;1.10;;;15.50;98.20;;;;;;4972164;28;20470;-79
2021/09/19 01:45:40;;;;;;;1.50;1.00;;;15.50;98.20;;;;;;4980449;28;20959;-79
2021/09/19 01:48:07;;;;;;;1.50;1.00;;;15.50;98.20;;;;;;4986039;28;20549;-79
2021/09/19 01:50:34;;;;;;;1.50;1.00;;;15.50;98.20;;;;;;4990724;28;20872;-79
2021/09/19 01:53:02;;;;;;;1.50;1.00;;;15.50;98.20;;;;;;4987375;28;20480;-79
2021/09/19 01:55:29;;;;;;;1.50;1.00;;;15.50;98.20;;;;;;4989010;28;20977;-79
2021/09/19 01:57:57;;;;;;;1.53;1.00;;;15.40;98.20;;;;;;4990134;28;20505;-80
2021/09/19 02:00:25;;;;;;;1.50;1.00;;;15.40;98.20;;;;;;4988541;28;20473;-80
2021/09/19 02:02:52;;;;;;;1.50;1.00;;;15.40;98.20;;;;;;4990253;28;20476;-79
2021/09/19 02:05:19;;;;;;;1.57;1.00;;;15.40;98.20;;;;;;4987641;28;20608;-79
2021/09/19 02:07:46;;;;;;;1.57;1.10;;;15.40;98.20;;;;;;4989379;28;20484;-79
2021/09/19 02:10:15;;;;;;;1.50;1.00;;;15.30;98.20;;;;;;4990829;28;20472;-79
2021/09/19 02:12:43;;;;;;;1.60;1.10;;;15.30;98.20;;;;;;4991686;28;20495;-78
2021/09/19 02:15:13;;;;;;;1.57;1.10;;;15.30;98.20;;;;;;4988332;28;20476;-79
2021/09/19 02:17:40;;;;;;;1.50;1.00;;;15.30;98.20;;;;;;4989534;28;20516;-82
2021/09/19 02:20:10;;;;;;;1.50;1.00;;;15.30;98.20;;;;;;4990562;28;20991;-79
2021/09/19 02:22:37;;;;;;;1.57;1.03;;;15.30;98.20;;;;;;4983474;28;20461;-79
2021/09/19 02:25:05;;;;;;;1.57;1.00;;;15.20;98.20;;;;;;4989221;28;20465;-80
2021/09/19 02:27:32;;;;;;;1.50;1.00;;;15.20;98.20;;;;;;4991357;28;21010;-81
2021/09/19 02:29:58;;;;;;;1.50;1.00;;;15.20;98.20;;;;;;4993348;28;20472;-80
2021/09/19 02:32:26;;;;;;;1.50;1.00;;;15.20;98.20;;;;;;4992635;28;20465;-81
2021/09/19 02:34:53;;;;;;;1.50;1.00;;;15.20;98.20;;;;;;4990344;28;20527;-81
2021/09/19 02:37:20;;;;;;;1.57;1.00;;;15.10;98.20;;;;;;4991774;28;20496;-81
2021/09/19 02:39:47;;;;;;;1.60;1.10;;;15.10;98.20;;;;;;4989848;28;20470;-81
2021/09/19 02:42:14;;;;;;;1.50;1.00;;;15.10;98.20;;;;;;4993177;28;21014;-81
2021/09/19 02:44:40;;;;;;;1.53;1.00;;;15.10;98.20;;;;;;4992540;28;20477;-81
2021/09/19 02:47:07;;;;;;;1.60;1.10;;;15.00;98.20;;;;;;4990654;28;20576;-80
2021/09/19 02:49:35;;;;;;;1.53;1.10;;;15.00;98.20;;;;;;4993296;28;21002;-81
2021/09/19 02:52:02;;;;;;;1.53;1.00;;;15.00;98.20;;;;;;4993893;28;20479;-81
2021/09/19 02:54:29;;;;;;;1.50;1.00;;;15.00;98.20;;;;;;4992090;28;20834;-80
2021/09/19 02:56:56;;;;;;;1.60;1.10;;;14.90;98.20;;;;;;4991340;28;20563;-81
2021/09/19 02:59:22;;;;;;;1.60;1.10;;;14.90;98.20;;;;;;4991536;28;20469;-80
2021/09/19 03:01:49;;;;;;;1.50;1.00;;;14.90;98.20;;;;;;4992645;28;20472;-81
2021/09/19 03:04:16;;;;;;;1.53;1.00;;;14.90;98.20;;;;;;4985876;28;20991;-81
2021/09/19 03:06:44;;;;;;;1.50;1.00;;;14.80;98.20;;;;;;4991457;28;20489;-81
2021/09/19 03:09:11;;;;;;;1.50;1.00;;;14.80;98.20;;;;;;4992172;28;20468;-81
2021/09/19 03:11:38;;;;;;;1.53;1.00;;;14.80;98.20;;;;;;4991721;28;20468;-81
2021/09/19 03:14:05;;;;;;;1.50;1.10;;;14.80;98.20;;;;;;4990947;28;20465;-80
2021/09/19 03:16:34;;;;;;;1.57;1.07;;;14.80;98.20;;;;;;4985429;28;20999;-81
2021/09/19 03:19:10;;;;;;;1.50;1.00;;;14.80;98.20;;;;;;5000398;28;20491;-82
2021/09/19 03:22:24;;;;;;;1.57;1.03;;;14.70;98.20;;;;;;5002418;28;20471;-81
2021/09/19 03:25:25;;;;;;;1.53;1.00;;;14.70;98.20;;;;;;4973125;28;20468;-81
2021/09/19 03:28:21;;;;;;;1.50;1.00;;;14.70;98.20;;;;;;4995062;28;20571;-81
2021/09/19 03:33:41;;;;;;;1.50;1.00;;;14.60;98.20;;;;;;4997158;28;20956;-79
2021/09/19 03:36:08;;;;;;;1.53;1.10;;;14.60;98.20;;;;;;5017187;23;20488;-77
2021/09/19 03:38:35;;;;;;;1.50;1.10;;;14.60;98.20;;;;;;4985379;28;20494;-78
2021/09/19 03:41:02;;;;;;;1.50;1.00;;;14.50;98.20;;;;;;4979582;28;20850;-78
2021/09/19 03:43:30;;;;;;;1.50;1.03;;;14.50;98.20;;;;;;4974689;28;20965;-77
2021/09/19 03:45:57;;;;;;;1.53;1.00;;;14.50;98.20;;;;;;4979024;28;20461;-78
2021/09/19 03:48:24;;;;;;;1.50;1.10;;;14.50;98.20;;;;;;4976053;28;20521;-78
2021/09/19 03:50:50;;;;;;;1.50;1.00;;;14.50;98.20;;;;;;4971938;28;20466;-77
2021/09/19 03:53:17;;;;;;;1.50;1.00;;;14.40;98.20;;;;;;4981173;28;20460;-79
2021/09/19 03:55:44;;;;;;;1.50;1.00;;;14.40;98.20;;;;;;4982815;28;20500;-78
2021/09/19 03:58:11;;;;;;;1.57;1.07;;;14.40;98.20;;;;;;4984793;28;20999;-77
2021/09/19 04:00:39;;;;;;;1.50;1.00;;;14.40;98.20;;;;;;4973743;28;20473;-77
2021/09/19 04:03:07;;;;;;;1.50;1.07;;;14.40;98.20;;;;;;4973938;28;20902;-78
2021/09/19 04:05:36;;;;;;;1.50;1.03;;;14.30;98.20;;;;;;4970942;28;20815;-78
2021/09/19 04:08:03;;;;;;;1.60;1.10;;;14.30;98.20;;;;;;4973782;28;20482;-78
2021/09/19 04:10:30;;;;;;;1.60;1.20;;;14.20;98.20;;;;;;4979049;28;20470;-77
2021/09/19 04:12:57;;;;;;;1.53;1.00;;;14.20;98.20;;;;;;4981213;28;20469;-77
2021/09/19 04:15:24;;;;;;;1.57;1.10;;;14.20;98.20;;;;;;4983813;28;20474;-78
2021/09/19 04:17:52;;;;;;;1.50;1.00;;;14.10;98.20;;;;;;4977306;28;20485;-77
2021/09/19 04:20:19;;;;;;;1.53;1.00;;;14.10;98.20;;;;;;4978612;28;20472;-78
2021/09/19 04:22:46;;;;;;;1.50;1.00;;;14.00;98.20;;;;;;4986348;28;20469;-79
2021/09/19 04:25:13;;;;;;;1.60;1.10;;;14.00;98.20;;;;;;4990141;28;20476;-78
2021/09/19 04:27:40;;;;;;;1.57;1.10;;;14.00;98.20;;;;;;4989813;28;20486;-77
2021/09/19 04:30:08;;;;;;;1.53;1.10;;;14.00;98.20;;;;;;4990654;28;20469;-78
2021/09/19 04:32:35;;;;;;;1.50;1.00;;;13.90;98.20;;;;;;4990296;28;20492;-77
2021/09/19 04:35:04;;;;;;;1.50;1.00;;;13.90;98.20;;;;;;4989845;28;20480;-77
2021/09/19 04:37:31;;;;;;;1.50;1.00;;;13.90;98.20;;;;;;4980440;28;20929;-78
2021/09/19 04:39:58;;;;;;;1.60;1.10;;;13.90;98.20;;;;;;4977408;28;20821;-78
2021/09/19 04:42:25;;;;;;;1.53;1.00;;;13.80;98.20;;;;;;4984298;28;20469;-77
2021/09/19 04:44:52;;;;;;;1.60;1.10;;;13.80;98.20;;;;;;4980888;28;20469;-78
2021/09/19 04:47:18;;;;;;;1.53;1.00;;;13.80;98.20;;;;;;4980885;28;20867;-77
2021/09/19 04:49:45;;;;;;;1.57;1.10;;;13.80;98.20;;;;;;4986457;28;20462;-78
2021/09/19 04:52:14;;;;;;;1.57;1.10;;;13.80;98.20;;;;;;4979566;28;20470;-77
2021/09/19 04:54:41;;;;;;;1.50;1.10;;;13.80;98.20;;;;;;4981061;28;20487;-77
2021/09/19 04:57:07;;;;;;;1.57;1.10;;;13.80;98.20;;;;;;4978851;28;21087;-79
2021/09/19 04:59:35;;;;;;;1.53;1.00;;;13.80;98.20;;;;;;4978851;28;20495;-78
2021/09/19 05:02:02;;;;;;;1.50;1.00;;;13.90;98.20;;;;;;4974546;28;20565;-78
2021/09/19 05:04:29;;;;;;;1.53;1.00;;;13.90;98.20;;;;;;4971944;28;20461;-80
2021/09/19 05:06:56;;;;;;;1.50;1.00;;;13.90;98.20;;;;;;4972881;28;20477;-79
2021/09/19 05:09:24;;;;;;;1.50;1.00;;;13.90;98.20;;;;;;4976246;28;20808;-79
2021/09/19 05:11:51;;;;;;;1.50;1.00;;;13.90;98.20;;;;;;4975016;28;20501;-78
2021/09/19 05:14:18;;;;;;;1.50;1.00;;;13.90;98.20;;;;;;4983701;28;21133;-79
2021/09/19 05:16:45;;;;;;;1.57;1.03;;;13.90;98.20;;;;;;4975340;28;20842;-78
2021/09/19 05:19:12;;;;;;;1.57;1.00;;;14.00;98.20;;;;;;4977426;28;20859;-77
2021/09/19 05:21:38;;;;;;;1.50;1.10;;;14.00;98.20;;;;;;4978488;28;20555;-79
2021/09/19 05:24:05;;;;;;;1.50;1.00;;;14.00;98.20;;;;;;4971969;28;20489;-80
2021/09/19 05:26:34;;;;;;;1.50;1.00;;;14.00;98.20;;;;;;4971069;28;20480;-77
2021/09/19 05:29:01;;;;;;;1.53;1.10;;;14.00;98.20;;;;;;4975174;28;20485;-77
2021/09/19 05:31:30;;;;;;;1.50;1.10;;;14.00;98.20;;;;;;4976819;28;20468;-77
2021/09/19 05:33:57;;;;;;;1.60;1.10;;;14.00;98.20;;;;;;4988840;28;20527;-78
2021/09/19 05:36:23;;;;;;;1.50;1.10;;;14.00;98.20;;;;;;4977253;28;20469;-79
2021/09/19 05:38:50;;;;;;;1.50;1.00;;;14.10;98.20;;;;;;4975327;28;20992;-77
2021/09/19 05:41:17;;;;;;;1.50;1.00;;;14.10;98.20;;;;;;4971315;28;20474;-78
2021/09/19 05:43:45;;;;;;;1.50;0.97;;;14.10;98.20;;;;;;4971523;28;20499;-79
2021/09/19 05:46:12;;;;;;;1.53;1.10;;;14.10;98.20;;;;;;4972286;28;20976;-78
2021/09/19 05:48:39;;;;;;;1.50;1.00;;;14.10;98.20;;;;;;4975222;28;20496;-79
2021/09/19 05:51:06;;;;;;;1.57;1.10;;;14.10;98.20;;;;;;4971801;28;20851;-78
2021/09/19 05:53:33;;;;;;;1.50;1.10;;;14.10;98.20;;;;;;4973726;28;20470;-78
2021/09/19 05:56:00;;;;;;;1.53;1.03;;;14.10;98.20;;;;;;4969991;28;20474;-78
2021/09/19 05:58:26;;;;;;;1.50;1.00;;;14.10;98.20;;;;;;4987632;28;20731;-77
2021/09/19 06:00:54;;;;;;;1.50;1.10;;;14.10;98.20;;;;;;4979799;28;20488;-77
2021/09/19 06:03:21;;;;;;;1.57;1.10;;;14.20;98.20;;;;;;4977458;28;20564;-78
2021/09/19 06:05:48;;;;;;;1.50;1.00;;;14.20;98.20;;;;;;4977597;28;20523;-77
2021/09/19 06:08:15;;;;;;;1.50;1.00;;;14.20;98.20;;;;;;4986156;28;20997;-80
2021/09/19 06:10:42;;;;;;;1.60;1.10;;;14.20;98.20;;;;;;4984309;28;20469;-77
2021/09/19 06:13:09;;;;;;;1.50;1.00;;;14.30;98.20;;;;;;4985266;28;20660;-78
2021/09/19 06:15:35;;;;;;;1.53;1.00;;;14.30;98.20;;;;;;4983125;28;20547;-79
2021/09/19 06:18:04;;;;;;;1.53;1.00;;;14.40;98.20;;;;;;4981550;28;20570;-79
2021/09/19 06:20:31;;;;;;;1.50;1.00;;;14.50;98.20;;;;;;4983212;28;20471;-78
2021/09/19 06:22:57;;;;;;;1.50;1.00;;;14.50;98.20;;;;;;4986782;28;20869;-78
2021/09/19 06:25:24;;;;;;;1.50;1.00;;;14.60;98.20;;;;;;4976046;28;20513;-78
2021/09/19 06:27:51;;;;;;;1.57;1.10;;;14.70;98.20;;;;;;4981022;28;20490;-78
2021/09/19 06:30:18;;;;;;;1.50;1.00;;;14.80;98.20;;;;;;4979728;28;20462;-80
2021/09/19 06:32:44;;;;;;;1.53;1.00;;;14.90;98.20;;;;;;4985635;28;20485;-80
2021/09/19 06:35:13;;;;;;;1.50;1.00;;;15.00;98.20;;;;;;4984691;28;20629;-79
2021/09/19 06:37:40;;;;;;;1.53;1.00;;;15.10;98.20;;;;;;4983032;28;20866;-78
2021/09/19 06:40:07;;;;;;;1.57;1.07;;;15.20;98.20;;;;;;4986913;28;20496;-77
2021/09/19 06:42:34;;;;;;;1.53;1.00;;;15.20;98.20;;;;;;4981831;28;20469;-78
2021/09/19 06:45:01;;;;;;;1.57;1.00;;;15.30;98.20;;;;;;4980984;28;20480;-77
2021/09/19 06:47:28;;;;;;;1.50;1.00;;;15.30;98.20;;;;;;4977396;28;21066;-80
2021/09/19 06:49:55;;;;;;;1.50;1.00;;;15.40;98.20;;;;;;4976830;28;20557;-78
2021/09/19 06:52:23;;;;;;;1.53;1.00;;;15.50;98.20;;;;;;4981363;28;20474;-80
2021/09/19 06:54:50;;;;;;;1.57;1.00;;;15.70;98.20;;;;;;4976577;28;20462;-79
2021/09/19 06:57:17;;;;;;;1.57;1.00;;;15.70;98.20;;;;;;4977798;28;20864;-80
2021/09/19 06:59:44;;;;;;;1.57;1.00;;;15.90;98.20;;;;;;4990904;28;20477;-80
2021/09/19 07:02:10;;;;;;;1.50;1.00;;;16.10;98.20;;;;;;4983148;28;20468;-79
2021/09/19 07:04:37;;;;;;;1.53;1.00;;;16.20;98.20;;;;;;4988497;28;20477;-80
2021/09/19 07:07:04;;;;;;;1.60;1.00;;;16.30;98.20;;;;;;4978914;28;20511;-81
2021/09/19 07:09:32;;;;;;;1.60;1.00;;;16.50;98.20;;;;;;4982512;28;20465;-79
2021/09/19 07:11:59;;;;;;;1.57;1.00;;;16.60;98.20;;;;;;4980494;28;20472;-80
2021/09/19 07:14:26;;;;;;;1.53;1.00;;;16.70;98.20;;;;;;4977116;28;20481;-79
2021/09/19 07:16:53;;;;;;;1.53;1.00;;;16.70;98.20;;;;;;4974608;28;20852;-79
2021/09/19 07:19:19;;;;;;;1.50;1.00;;;16.80;98.20;;;;;;4981391;28;20486;-79
2021/09/19 07:21:46;;;;;;;1.50;0.93;;;16.90;98.20;;;;;;4978719;28;20868;-80
2021/09/19 07:24:13;;;;;;;1.50;0.90;;;17.00;98.20;;;;;;4978758;28;20501;-80
2021/09/19 07:26:41;;;;;;;1.50;1.00;;;17.10;98.20;;;;;;4977802;28;20492;-79
2021/09/19 07:29:08;;;;;;;1.50;0.90;;;17.10;98.20;;;;;;4972985;28;21297;-80
2021/09/19 07:31:35;;;;;;;1.50;1.00;;;17.10;98.20;;;;;;4983355;28;20461;-79
2021/09/19 07:34:03;;;;;;;1.57;1.10;;;17.10;98.20;;;;;;4973336;28;20763;-77
2021/09/19 07:36:33;;;;;;;1.50;0.90;;;17.20;98.20;;;;;;4981301;28;20473;-79
2021/09/19 07:39:01;;;;;;;1.50;0.93;;;17.30;98.20;;;;;;4969106;28;20493;-79
2021/09/19 07:41:28;;;;;;;1.50;1.00;;;17.30;98.20;;;;;;4979780;28;20470;-79
2021/09/19 07:43:57;;;;;;;1.50;0.97;;;17.40;98.20;;;;;;4979584;28;20473;-78
2021/09/19 07:46:24;;;;;;;1.50;0.90;;;17.50;98.20;;;;;;4971605;28;20836;-80
2021/09/19 07:48:51;;;;;;;1.50;1.00;;;17.70;98.20;;;;;;4972837;28;20469;-79
2021/09/19 07:51:19;;;;;;;1.53;1.00;;;17.90;98.20;;;;;;4977375;28;20471;-83
2021/09/19 07:53:47;;;;;;;1.50;0.90;;;18.10;98.20;;;;;;4969071;28;20897;-78
2021/09/19 07:56:14;;;;;;;1.53;1.00;;;18.30;98.20;;;;;;4986539;28;20470;-80
2021/09/19 07:58:41;;;;;;;1.50;1.00;;;18.40;98.20;;;;;;4969636;28;21036;-80
2021/09/19 08:01:09;;;;;;;1.50;0.90;;;18.50;98.20;;;;;;4982014;28;20991;-79
2021/09/19 08:03:36;;;;;;;1.50;1.00;;;18.60;97.90;;;;;;4972167;28;20465;-80
2021/09/19 08:06:03;;;;;;;1.50;0.90;;;18.70;97.30;;;;;;4973180;28;20504;-78
2021/09/19 08:08:30;;;;;;;1.50;0.90;;;18.80;96.90;;;;;;4981146;28;20496;-80
2021/09/19 08:10:57;;;;;;;1.50;1.00;;;18.80;96.50;;;;;;4975346;28;20465;-81
2021/09/19 08:13:23;;;;;;;1.50;0.90;;;19.00;96.60;;;;;;4983422;28;20472;-80
2021/09/19 08:15:50;;;;;;;1.60;1.00;;;19.10;95.40;;;;;;4975245;28;20464;-78
2021/09/19 08:18:18;;;;;;;1.57;1.00;;;19.10;96.30;;;;;;4977527;28;20916;-79
2021/09/19 08:20:46;;;;;;;1.50;0.90;;;19.20;94.90;;;;;;4983501;28;20521;-80
2021/09/19 08:23:13;;;;;;;1.50;0.90;;;19.20;95.10;;;;;;4984900;28;20481;-80
2021/09/19 08:25:40;;;;;;;1.50;1.00;;;19.30;94.70;;;;;;4978889;28;20480;-79
2021/09/19 08:28:07;;;;;;;1.50;0.90;;;19.40;94.50;;;;;;4969434;28;21170;-79
2021/09/19 08:30:34;;;;;;;1.50;0.90;;;19.50;94.50;;;;;;4976749;28;20472;-81
2021/09/19 08:33:00;;;;;;;1.50;0.90;;;19.60;94.10;;;;;;4978575;28;20474;-80
2021/09/19 08:35:29;;;;;;;1.50;0.90;;;19.60;93.90;;;;;;4973160;28;20494;-81
2021/09/19 08:37:55;;;;;;;1.50;0.90;;;19.60;93.80;;;;;;4968143;28;20494;-81
2021/09/19 08:40:22;;;;;;;1.50;0.90;;;19.80;94.20;;;;;;4976706;28;20486;-79
2021/09/19 08:42:54;;;;;;;1.50;0.90;;;19.80;92.70;;;;;;4977894;28;20528;-81
2021/09/19 08:45:22;;;;;;;1.50;0.90;;;19.90;92.90;;;;;;4970263;28;20573;-81
2021/09/19 08:47:50;;;;;;;1.50;0.90;;;20.00;92.90;;;;;;4976704;28;20552;-79
2021/09/19 08:50:17;;;;;;;1.50;0.90;;;20.10;92.50;;;;;;4975181;28;21154;-81
2021/09/19 08:52:45;;;;;;;1.50;0.90;;;20.20;92.20;;;;;;4975346;28;21062;-79
2021/09/19 08:55:12;;;;;;;1.50;0.90;;;20.40;92.40;;;;;;4975673;28;20969;-80
2021/09/19 08:57:40;;;;;;;1.53;0.93;;;20.60;92.60;;;;;;4977142;28;20481;-78
2021/09/19 09:00:11;;;;;;;1.50;0.90;;;20.70;92.40;;;;;;4986583;28;20495;-79
2021/09/19 09:02:50;;;;;;;1.53;0.90;;;20.80;90.40;;;;;;4970945;28;20509;-80
2021/09/19 09:05:23;;;;;;;1.50;1.00;;;20.90;90.70;;;;;;4976016;28;20471;-78
2021/09/19 09:07:56;;;;;;;1.60;1.20;;;20.90;90.10;;;;;;4979044;28;20496;-82
2021/09/19 09:10:32;;;;;;;1.53;0.90;;;21.00;89.90;;;;;;4977707;28;20887;-79
2021/09/19 09:13:03;;;;;;;1.50;0.90;;;21.10;89.40;;;;;;4981282;28;20477;-79
2021/09/19 09:15:42;;;;;;;1.50;0.90;;;21.10;89.20;;;;;;4971746;28;20629;-82
2021/09/19 09:18:13;;;;;;;1.57;1.00;;;21.20;89.20;;;;;;4971321;28;20489;-80
2021/09/19 09:21:14;;;;;;;1.50;0.90;;;21.30;88.50;;;;;;4974638;28;20921;-82
2021/09/19 09:23:44;;;;;;;1.50;0.90;;;21.50;88.10;;;;;;4980176;28;20472;-83
2021/09/19 09:26:20;;;;;;;1.50;0.90;;;21.50;88.00;;;;;;4973242;28;20761;-84
2021/09/19 09:28:53;;;;;;;1.53;0.90;;;21.60;86.90;;;;;;4975185;28;20471;-81
2021/09/19 09:31:25;;;;;;;1.50;0.90;;;21.70;87.60;;;;;;4976456;28;20843;-82
2021/09/19 09:33:59;;;;;;;1.50;0.90;;;21.90;87.00;;;;;;4975343;28;20980;-82
2021/09/19 09:36:42;;;;;;;1.60;1.10;;;22.00;86.90;;;;;;4974334;28;20877;-81
2021/09/19 09:39:34;;;;;;;1.50;0.90;;;21.90;86.10;;;;;;4968525;28;20598;-80
2021/09/19 09:42:04;;;;;;;1.50;0.90;;;22.00;86.80;;;;;;4981513;28;20587;-81
2021/09/19 09:44:40;;;;;;;1.50;0.90;;;22.00;85.70;;;;;;4973876;28;20519;-82
2021/09/19 09:47:11;;;;;;;1.50;0.90;;;21.90;85.60;;;;;;4973058;28;20564;-80
2021/09/19 09:49:48;;;;;;;1.50;0.90;;;21.90;86.20;;;;;;4983936;28;20477;-79
2021/09/19 09:52:22;;;;;;;1.50;0.90;;;22.00;86.50;;;;;;4983804;28;20516;-81
2021/09/19 09:54:54;;;;;;;1.50;0.90;;;21.90;86.30;;;;;;4980636;28;20516;-78
2021/09/19 09:57:40;;;;;;;1.50;0.90;;;21.90;86.30;;;;;;4985422;28;20543;-79
2021/09/19 10:00:12;;;;;;;1.50;0.90;;;21.90;86.00;;;;;;4985784;28;20540;-80
2021/09/19 10:02:41;;;;;;;1.50;0.90;;;21.90;85.50;;;;;;4979043;28;20528;-80
2021/09/19 10:05:11;;;;;;;1.50;0.90;;;21.90;85.90;;;;;;4973167;28;20474;-80
2021/09/19 10:07:39;;;;;;;1.50;0.90;;;22.10;86.10;;;;;;4976283;28;21103;-81
2021/09/19 10:10:11;;;;;;;1.50;0.90;;;22.10;85.80;;;;;;4974263;28;20469;-81
2021/09/19 10:12:41;;;;;;;1.50;0.90;;;22.20;85.70;;;;;;4980697;28;20472;-80
2021/09/19 10:15:10;;;;;;;1.50;0.90;;;22.30;84.60;;;;;;4981214;28;20919;-79
2021/09/19 10:17:37;;;;;;;1.50;0.90;;;22.30;85.30;;;;;;4979017;28;20485;-80
2021/09/19 10:20:11;;;;;;;1.50;0.90;;;22.20;85.30;;;;;;4981641;28;20485;-80
2021/09/19 10:22:47;;;;;;;1.50;0.90;;;22.30;85.70;;;;;;4992381;28;20468;-81
2021/09/19 10:25:33;;;;;;;1.50;0.90;;;22.30;84.60;;;;;;4976050;28;20500;-81
2021/09/19 10:28:17;;;;;;;1.50;0.90;;;22.30;84.30;;;;;;4978038;28;20484;-81
2021/09/19 10:31:21;;;;;;;1.50;0.90;;;22.40;84.30;;;;;;4977467;28;20470;-81
2021/09/19 10:33:54;;;;;;;1.50;0.90;;;22.60;84.10;;;;;;4980621;28;20478;-79
2021/09/19 10:36:30;;;;;;;1.50;0.90;;;22.60;84.30;;;;;;4970585;28;20482;-80
2021/09/19 10:39:28;;;;;;;1.50;0.80;;;22.60;83.30;;;;;;4969876;28;20468;-80
2021/09/19 10:42:28;;;;;;;1.50;0.90;;;22.60;83.60;;;;;;4945641;28;20541;-80
2021/09/19 10:44:58;;;;;;;1.50;1.10;;;22.50;83.60;;;;;;4979743;28;20528;-81
2021/09/19 10:47:31;;;;;;;1.50;0.90;;;22.40;82.80;;;;;;4972830;28;20568;-79
2021/09/19 10:50:21;;;;;;;1.50;0.90;;;22.20;83.70;;;;;;4976806;28;20794;-81
2021/09/19 10:52:50;;;;;;;1.50;0.90;;;22.10;84.20;;;;;;4965671;28;20577;-80
2021/09/19 10:55:23;;;;;;;1.50;0.90;;;22.00;84.00;;;;;;4971275;28;20466;-78
2021/09/19 10:57:59;;;;;;;1.90;1.50;;;21.90;84.60;;;;;;4973717;28;20973;-78
2021/09/19 11:00:28;;;;;;;1.50;0.90;;;21.90;85.40;;;;;;4981748;28;20905;-78
2021/09/19 11:03:04;;;;;;;1.50;0.90;;;22.00;84.50;;;;;;4980603;28;20464;-78
2021/09/19 11:05:32;;;;;;;1.50;0.90;;;22.00;84.60;;;;;;4972154;28;20524;-78
2021/09/19 11:08:25;;;;;;;1.50;0.90;;;22.00;84.90;;;;;;4973513;28;20594;-79
2021/09/19 11:11:10;;;;;;;1.50;0.90;;;21.90;84.30;;;;;;4961509;28;20462;-79
2021/09/19 11:13:42;;;;;;;1.50;0.90;;;21.90;84.60;;;;;;4975236;28;20834;-79
2021/09/19 11:16:24;;;;;;;1.50;0.90;;;21.90;85.00;;;;;;4977576;28;20990;-79
2021/09/19 11:18:53;;;;;;;1.50;0.90;;;21.80;83.90;;;;;;4975448;28;20983;-78
2021/09/19 11:21:35;;;;;;;1.50;0.90;;;21.80;84.50;;;;;;4984042;28;20489;-79
2021/09/19 11:24:05;;;;;;;1.50;0.90;;;21.80;84.30;;;;;;4976944;28;20461;-78
2021/09/19 11:26:34;;;;;;;1.50;0.90;;;21.70;83.90;;;;;;4982608;28;20465;-79
2021/09/19 11:29:06;;;;;;;1.50;0.90;;;21.60;84.60;;;;;;4975886;28;20462;-79
2021/09/19 11:31:33;;;;;;;1.50;0.90;;;21.50;84.80;;;;;;4979220;28;20492;-79
2021/09/19 11:34:03;;;;;;;1.50;0.90;;;21.50;84.60;;;;;;4975936;28;20476;-79
2021/09/19 11:36:31;;;;;;;1.50;1.20;;;21.40;85.40;;;;;;4972253;28;20846;-78
2021/09/19 11:38:58;;;;;;;1.50;1.00;;;21.30;85.70;;;;;;4974531;28;20587;-79
2021/09/19 11:41:27;;;;;;;1.50;0.90;;;21.40;85.60;;;;;;4980711;28;20484;-79
2021/09/19 11:43:56;;;;;;;1.50;0.90;;;21.40;85.60;;;;;;4978696;28;21023;-80
2021/09/19 11:46:27;;;;;;;1.50;0.90;;;21.50;85.10;;;;;;4976586;28;21026;-79
2021/09/19 11:48:55;;;;;;;1.50;0.90;;;21.50;84.90;;;;;;4991272;23;20839;-78
2021/09/19 11:51:24;;;;;;;1.50;0.90;;;21.40;85.00;;;;;;5001432;28;20468;-79
2021/09/19 11:53:53;;;;;;;1.50;0.90;;;21.40;85.00;;;;;;4998833;28;20475;-79
2021/09/19 11:56:21;;;;;;;1.50;0.90;;;21.40;84.30;;;;;;4997939;28;20909;-78
2021/09/19 11:58:50;;;;;;;1.50;0.90;;;21.40;84.50;;;;;;4992781;28;20483;-78
2021/09/19 12:01:18;;;;;;;1.50;0.90;;;21.40;84.60;;;;;;4973534;28;20504;-78
2021/09/19 12:03:46;;;;;;;1.50;0.90;;;21.40;85.00;;;;;;4990799;28;20832;-78
2021/09/19 12:06:13;;;;;;;1.50;0.90;;;21.50;85.50;;;;;;4989120;28;20468;-80
2021/09/19 12:08:44;;;;;;;1.50;0.90;;;21.70;84.30;;;;;;4990757;28;20576;-79
2021/09/19 12:11:12;;;;;;;1.50;0.90;;;21.90;84.30;;;;;;4982481;28;20461;-78
2021/09/19 12:13:46;;;;;;;1.50;1.00;;;22.10;83.20;;;;;;4981518;28;20468;-81
2021/09/19 12:16:15;;;;;;;1.90;1.17;;;22.30;83.10;;;;;;4982967;28;20519;-78
2021/09/19 12:18:43;;;;;;;1.50;0.90;;;22.50;83.00;;;;;;4981417;28;20488;-79
2021/09/19 12:21:14;;;;;;;1.50;0.90;;;22.90;82.80;;;;;;4985634;28;20501;-79
2021/09/19 12:23:43;;;;;;;1.50;0.90;;;23.10;81.60;;;;;;4995639;28;20489;-79
2021/09/19 12:26:16;;;;;;;1.50;0.90;;;23.10;80.60;;;;;;4989844;28;20477;-79
2021/09/19 12:28:43;;;;;;;1.50;0.90;;;23.10;80.20;;;;;;4982497;28;20492;-79
2021/09/19 12:31:12;;;;;;;1.50;0.90;;;23.10;81.20;;;;;;4986362;28;20875;-79
2021/09/19 12:33:53;;;;;;;1.50;0.90;;;23.20;80.70;;;;;;4988001;28;20468;-79
2021/09/19 12:36:22;;;;;;;1.50;0.90;;;23.50;81.20;;;;;;4985348;28;20871;-80
2021/09/19 12:38:49;;;;;;;1.50;0.90;;;23.60;78.80;;;;;;4987214;28;20488;-80
2021/09/19 12:41:17;;;;;;;1.50;0.87;;;23.50;78.90;;;;;;4987591;28;21008;-78
2021/09/19 12:43:45;;;;;;;1.50;0.90;;;23.30;77.60;;;;;;4987810;28;20473;-80
2021/09/19 12:46:14;;;;;;;1.50;0.90;;;23.10;78.10;;;;;;4984085;28;20472;-79
2021/09/19 12:48:42;;;;;;;2.70;2.50;;;23.00;78.70;;;;;;4987452;28;20496;-79
2021/09/19 12:51:10;;;;;;;1.50;0.90;;;22.70;79.40;;;;;;4986925;28;20853;-80
2021/09/19 12:53:40;;;;;;;1.50;0.90;;;22.60;79.60;;;;;;4984051;28;20475;-79
2021/09/19 12:56:08;;;;;;;1.50;0.90;;;22.50;80.40;;;;;;4984592;28;20544;-79
2021/09/19 12:58:35;;;;;;;1.50;0.90;;;22.50;79.60;;;;;;4986092;28;20756;-81
2021/09/19 13:01:02;;;;;;;1.50;0.90;;;22.40;79.90;;;;;;4983624;28;20485;-80
2021/09/19 13:03:29;;;;;;;1.50;0.90;;;22.50;81.50;;;;;;4986472;28;20485;-78